Time;durP1;ratioP1;P1;durP2;ratioP2;P2;SDS_P1;SDS_P2;PMS_P1;PMS_P2;Temp;Humidity;BMP_temperature;BMP_pressure;BME280_temperature;BME280_humidity;BME280_pressure;Samples;Min_cycle;Max_cycle;Signal;HPM_P1;HPM_P2
2022/04/23 00:01:02;;;;;;;12.57;11.20;;;13.30;89.30;;;;;;5103812;28;20455;-78
2022/04/23 00:03:30;;;;;;;13.03;11.63;;;13.30;89.40;;;;;;5104445;28;20517;-78
2022/04/23 00:06:00;;;;;;;13.13;11.70;;;13.20;89.30;;;;;;5103972;28;20452;-78
2022/04/23 00:08:28;;;;;;;13.83;12.53;;;13.20;89.30;;;;;;5106930;28;20464;-78
2022/04/23 00:10:57;;;;;;;13.97;12.60;;;13.20;89.30;;;;;;5105636;28;21008;-78
2022/04/23 00:13:25;;;;;;;13.70;12.30;;;13.20;89.30;;;;;;5103121;28;20488;-79
2022/04/23 00:15:53;;;;;;;12.97;11.60;;;13.20;89.40;;;;;;5107258;28;20407;-79
2022/04/23 00:18:22;;;;;;;12.80;11.50;;;13.20;89.40;;;;;;5139872;27;20492;-78
2022/04/23 00:20:50;;;;;;;13.20;11.90;;;13.20;89.40;;;;;;5104572;28;20538;-78
2022/04/23 00:23:20;;;;;;;12.90;11.50;;;13.20;89.40;;;;;;5104344;28;20478;-78
2022/04/23 00:25:52;;;;;;;12.60;11.30;;;13.20;89.50;;;;;;5138773;27;20419;-78
2022/04/23 00:28:20;;;;;;;15.17;11.97;;;13.20;89.40;;;;;;5103824;28;21065;-79
2022/04/23 00:30:48;;;;;;;12.43;11.07;;;13.10;89.20;;;;;;5085764;28;20449;-78
2022/04/23 00:33:16;;;;;;;12.63;11.33;;;13.10;89.10;;;;;;5085403;28;20556;-78
2022/04/23 00:35:45;;;;;;;11.70;10.60;;;13.10;89.10;;;;;;5089447;28;20477;-78
2022/04/23 00:38:15;;;;;;;12.27;10.97;;;13.10;89.00;;;;;;5084906;28;21030;-78
2022/04/23 00:40:46;;;;;;;11.90;10.63;;;13.00;88.80;;;;;;5138628;27;20523;-78
2022/04/23 00:43:27;;;;;;;11.40;10.20;;;13.00;88.60;;;;;;5104919;28;20938;-78
2022/04/23 00:45:55;;;;;;;12.20;10.90;;;12.90;88.30;;;;;;5106034;28;20436;-78
2022/04/23 00:48:26;;;;;;;11.87;10.67;;;12.90;88.20;;;;;;5105406;28;20490;-78
2022/04/23 00:50:56;;;;;;;12.73;10.63;;;12.90;88.10;;;;;;5093354;28;20480;-79
2022/04/23 00:53:26;;;;;;;12.13;10.83;;;12.80;88.10;;;;;;5111299;28;20452;-79
2022/04/23 00:55:57;;;;;;;12.37;10.93;;;12.80;88.10;;;;;;5149719;27;20428;-79
2022/04/23 00:58:27;;;;;;;12.47;10.97;;;12.70;88.00;;;;;;5116899;28;20452;-79
2022/04/23 01:00:55;;;;;;;12.13;10.90;;;12.70;88.00;;;;;;5117595;28;20586;-78
2022/04/23 01:03:24;;;;;;;12.13;10.93;;;12.60;87.90;;;;;;5116934;28;20511;-78
2022/04/23 01:05:55;;;;;;;12.10;10.80;;;12.60;87.90;;;;;;5106372;28;20472;-79
2022/04/23 01:08:25;;;;;;;12.47;11.33;;;12.50;87.70;;;;;;5089225;28;20476;-78
2022/04/23 01:10:55;;;;;;;13.70;11.50;;;12.50;87.70;;;;;;5088882;28;20445;-78
2022/04/23 01:13:25;;;;;;;11.70;10.30;;;12.50;87.80;;;;;;5088829;28;20426;-78
2022/04/23 01:15:59;;;;;;;12.67;11.37;;;12.40;87.70;;;;;;5087499;28;20955;-78
2022/04/23 01:18:28;;;;;;;12.60;11.30;;;12.40;87.80;;;;;;5088912;28;20466;-78
2022/04/23 01:20:59;;;;;;;13.50;12.20;;;12.30;87.80;;;;;;5107128;28;20448;-79
2022/04/23 01:23:27;;;;;;;13.97;12.67;;;12.30;88.00;;;;;;5101644;28;20436;-78
2022/04/23 01:25:56;;;;;;;11.93;10.73;;;12.20;88.10;;;;;;5092282;28;20504;-78
2022/04/23 01:28:27;;;;;;;13.67;12.23;;;12.20;88.20;;;;;;5098512;28;20478;-78
2022/04/23 01:30:57;;;;;;;13.53;11.97;;;12.10;88.30;;;;;;5080160;28;21033;-78
2022/04/23 01:33:26;;;;;;;13.30;12.00;;;12.10;88.40;;;;;;5081207;28;20436;-78
2022/04/23 01:35:56;;;;;;;13.90;12.50;;;12.10;88.60;;;;;;5080375;28;20517;-78
2022/04/23 01:38:25;;;;;;;13.30;11.90;;;12.00;88.60;;;;;;5081708;28;20461;-78
2022/04/23 01:40:53;;;;;;;13.43;12.03;;;12.00;88.70;;;;;;5081063;28;20449;-78
2022/04/23 01:43:21;;;;;;;13.13;11.67;;;11.90;88.70;;;;;;5080371;28;20484;-78
2022/04/23 01:45:50;;;;;;;13.77;12.37;;;11.90;88.80;;;;;;5080943;28;20980;-79
2022/04/23 01:48:18;;;;;;;14.90;13.40;;;11.80;88.80;;;;;;5079624;28;20806;-78
2022/04/23 01:50:47;;;;;;;13.53;12.13;;;11.80;88.90;;;;;;5115588;27;20483;-79
2022/04/23 01:53:18;;;;;;;14.10;12.60;;;11.70;88.80;;;;;;5092029;28;20516;-78
2022/04/23 01:55:46;;;;;;;14.20;12.80;;;11.70;88.90;;;;;;5101547;28;20417;-78
2022/04/23 01:58:15;;;;;;;13.17;11.87;;;11.60;88.90;;;;;;5135587;28;20460;-78
2022/04/23 02:00:44;;;;;;;13.60;12.23;;;11.60;88.90;;;;;;5137247;28;20456;-78
2022/04/23 02:03:12;;;;;;;14.20;12.70;;;11.50;88.90;;;;;;5101615;28;20444;-78
2022/04/23 02:05:40;;;;;;;26.73;13.60;;;11.50;88.90;;;;;;5099827;28;20543;-78
2022/04/23 02:08:09;;;;;;;14.23;12.83;;;11.50;89.00;;;;;;5100756;28;20474;-78
2022/04/23 02:10:39;;;;;;;13.27;11.97;;;11.40;88.90;;;;;;5132743;28;20586;-78
2022/04/23 02:13:08;;;;;;;14.10;12.60;;;11.40;89.00;;;;;;5100627;28;20437;-78
2022/04/23 02:15:36;;;;;;;14.43;13.03;;;11.40;89.00;;;;;;5099641;28;20447;-78
2022/04/23 02:18:04;;;;;;;13.10;11.80;;;11.30;89.00;;;;;;5099390;28;20479;-78
2022/04/23 02:20:33;;;;;;;13.63;12.23;;;11.30;89.00;;;;;;5100836;28;20551;-79
2022/04/23 02:23:01;;;;;;;14.83;13.13;;;11.30;89.10;;;;;;5095445;28;20550;-79
2022/04/23 02:25:30;;;;;;;14.10;12.70;;;11.20;89.10;;;;;;5093144;28;20469;-78
2022/04/23 02:28:00;;;;;;;14.70;13.20;;;11.20;89.10;;;;;;5079504;28;20464;-78
2022/04/23 02:30:28;;;;;;;15.17;13.67;;;11.20;89.30;;;;;;5096196;28;20452;-78
2022/04/23 02:32:57;;;;;;;14.80;13.30;;;11.20;89.40;;;;;;5097474;28;20962;-78
2022/04/23 02:35:26;;;;;;;13.77;12.40;;;11.10;89.40;;;;;;5097907;28;20444;-78
2022/04/23 02:37:56;;;;;;;14.63;13.23;;;11.10;89.50;;;;;;5099937;28;20983;-78
2022/04/23 02:40:25;;;;;;;14.73;13.23;;;11.00;89.40;;;;;;5090550;28;20463;-78
2022/04/23 02:42:54;;;;;;;14.87;13.40;;;11.00;89.50;;;;;;5098479;28;20444;-78
2022/04/23 02:45:24;;;;;;;15.73;14.20;;;10.90;89.50;;;;;;5097426;28;20551;-78
2022/04/23 02:47:53;;;;;;;15.53;13.93;;;10.90;89.60;;;;;;5098635;28;20464;-78
2022/04/23 02:50:27;;;;;;;14.80;13.40;;;10.90;89.70;;;;;;5082644;28;20551;-78
2022/04/23 02:52:57;;;;;;;14.50;13.10;;;10.90;89.80;;;;;;5099043;28;20455;-78
2022/04/23 02:55:27;;;;;;;15.10;13.70;;;10.80;89.80;;;;;;5098922;28;20474;-78
2022/04/23 02:57:57;;;;;;;17.37;15.63;;;10.80;89.80;;;;;;5099716;28;20846;-78
2022/04/23 03:00:27;;;;;;;15.20;13.70;;;10.70;89.80;;;;;;5133781;28;20447;-78
2022/04/23 03:02:55;;;;;;;15.50;13.97;;;10.70;90.00;;;;;;5131940;27;20457;-78
2022/04/23 03:05:26;;;;;;;15.37;13.80;;;10.70;90.00;;;;;;5102987;28;20547;-78
2022/04/23 03:07:54;;;;;;;15.90;14.30;;;10.60;90.00;;;;;;5095840;28;20471;-78
2022/04/23 03:10:23;;;;;;;17.70;15.90;;;10.60;90.00;;;;;;5092338;28;20448;-78
2022/04/23 03:12:52;;;;;;;16.10;14.50;;;10.60;90.10;;;;;;5081815;28;20479;-78
2022/04/23 03:15:20;;;;;;;16.53;14.83;;;10.50;90.00;;;;;;5082487;28;20459;-78
2022/04/23 03:17:50;;;;;;;15.87;14.37;;;10.50;90.10;;;;;;5083581;28;20469;-78
2022/04/23 03:20:21;;;;;;;16.10;14.50;;;10.50;90.10;;;;;;5084082;28;20924;-78
2022/04/23 03:22:49;;;;;;;15.97;14.47;;;10.50;90.10;;;;;;5085866;28;20445;-79
2022/04/23 03:25:17;;;;;;;15.57;14.07;;;10.40;90.10;;;;;;5086981;28;20922;-79
2022/04/23 03:27:45;;;;;;;16.37;14.77;;;10.40;90.20;;;;;;5093142;28;20525;-78
2022/04/23 03:30:14;;;;;;;15.53;13.90;;;10.40;90.20;;;;;;5096125;28;20440;-78
2022/04/23 03:32:42;;;;;;;16.97;15.37;;;10.40;90.20;;;;;;5083449;28;20445;-78
2022/04/23 03:35:12;;;;;;;15.70;14.20;;;10.30;90.20;;;;;;5085493;28;20452;-78
2022/04/23 03:37:41;;;;;;;15.40;14.00;;;10.30;90.20;;;;;;5084121;28;20464;-77
2022/04/23 03:40:11;;;;;;;15.83;14.33;;;10.30;90.30;;;;;;5083337;28;20457;-78
2022/04/23 03:42:41;;;;;;;15.33;13.83;;;10.20;90.20;;;;;;5083732;28;20449;-78
2022/04/23 03:45:10;;;;;;;15.83;14.20;;;10.20;90.20;;;;;;5117427;28;20484;-78
2022/04/23 03:47:44;;;;;;;15.70;14.20;;;10.20;90.30;;;;;;5083933;28;20497;-78
2022/04/23 03:50:14;;;;;;;16.20;14.60;;;10.20;90.30;;;;;;5103030;28;20460;-78
2022/04/23 03:52:43;;;;;;;16.50;13.60;;;10.10;90.30;;;;;;5082468;28;20461;-78
2022/04/23 03:55:13;;;;;;;16.00;14.30;;;10.10;90.30;;;;;;5082119;28;20520;-78
2022/04/23 03:57:47;;;;;;;15.63;14.03;;;10.10;90.40;;;;;;5085243;28;20457;-79
2022/04/23 04:00:20;;;;;;;15.97;14.47;;;10.10;90.70;;;;;;5087287;28;20465;-78
2022/04/23 04:02:49;;;;;;;15.93;14.33;;;10.00;90.40;;;;;;5083640;28;20442;-78
2022/04/23 04:05:20;;;;;;;15.67;14.17;;;10.00;90.40;;;;;;5081281;28;20445;-78
2022/04/23 04:07:48;;;;;;;15.50;14.00;;;10.00;90.50;;;;;;5081429;28;21011;-78
2022/04/23 04:10:18;;;;;;;14.93;13.43;;;10.00;90.50;;;;;;5089341;28;20495;-79
2022/04/23 04:12:47;;;;;;;15.00;13.50;;;9.90;91.00;;;;;;5086655;28;20456;-78
2022/04/23 04:15:16;;;;;;;16.23;14.63;;;9.90;91.00;;;;;;5097414;28;20445;-78
2022/04/23 04:17:46;;;;;;;14.80;13.07;;;9.90;91.10;;;;;;5083905;28;20461;-78
2022/04/23 04:20:15;;;;;;;14.90;13.50;;;9.90;91.10;;;;;;5080968;28;20449;-78
2022/04/23 04:22:46;;;;;;;16.57;14.73;;;9.80;91.20;;;;;;5102555;28;20523;-78
2022/04/23 04:25:17;;;;;;;14.83;13.33;;;9.80;91.20;;;;;;5100855;28;20463;-78
2022/04/23 04:27:45;;;;;;;15.40;13.80;;;9.80;91.30;;;;;;5100432;28;20530;-77
2022/04/23 04:30:14;;;;;;;14.67;13.27;;;9.80;91.30;;;;;;5134065;27;20455;-78
2022/04/23 04:32:48;;;;;;;14.80;13.40;;;9.80;91.40;;;;;;5081608;28;20436;-78
2022/04/23 04:35:16;;;;;;;15.13;13.70;;;9.70;91.40;;;;;;5082649;28;20434;-78
2022/04/23 04:37:46;;;;;;;14.43;12.93;;;9.70;91.40;;;;;;5102270;28;20475;-78
2022/04/23 04:40:14;;;;;;;14.20;12.67;;;9.70;91.50;;;;;;5081915;28;20487;-78
2022/04/23 04:42:43;;;;;;;14.30;12.83;;;9.70;91.50;;;;;;5082473;28;20994;-78
2022/04/23 04:45:12;;;;;;;15.13;13.60;;;9.70;91.60;;;;;;5080748;28;20445;-79
2022/04/23 04:47:40;;;;;;;14.63;13.03;;;9.70;91.60;;;;;;5095191;28;20509;-78
2022/04/23 04:50:10;;;;;;;14.20;12.70;;;9.70;91.70;;;;;;5101798;28;20482;-78
2022/04/23 04:52:39;;;;;;;14.37;12.97;;;9.70;91.70;;;;;;5135142;27;20471;-78
2022/04/23 04:55:10;;;;;;;14.70;13.20;;;9.70;91.80;;;;;;5101716;28;20871;-78
2022/04/23 04:57:38;;;;;;;13.97;12.57;;;9.70;91.80;;;;;;5087147;28;20473;-79
2022/04/23 05:00:10;;;;;;;14.10;12.70;;;9.70;91.80;;;;;;5094667;28;20875;-78
2022/04/23 05:02:39;;;;;;;15.47;13.97;;;9.70;91.90;;;;;;5080199;28;20892;-79
2022/04/23 05:05:08;;;;;;;15.83;12.97;;;9.70;91.90;;;;;;5096057;28;20812;-78
2022/04/23 05:07:37;;;;;;;13.80;12.40;;;9.60;91.90;;;;;;5134375;27;20494;-78
2022/04/23 05:10:06;;;;;;;14.40;11.70;;;9.60;91.90;;;;;;5100552;28;20505;-78
2022/04/23 05:12:36;;;;;;;13.60;11.53;;;9.60;92.00;;;;;;5101800;28;20436;-78
2022/04/23 05:15:05;;;;;;;13.33;11.53;;;9.70;92.10;;;;;;5103022;28;20428;-78
2022/04/23 05:17:37;;;;;;;14.83;11.13;;;9.70;92.10;;;;;;5103757;28;20463;-79
2022/04/23 05:20:07;;;;;;;13.20;11.80;;;9.70;92.10;;;;;;5096542;28;20460;-78
2022/04/23 05:22:35;;;;;;;13.93;12.50;;;9.70;92.10;;;;;;5084246;28;20528;-79
2022/04/23 05:25:05;;;;;;;14.20;12.70;;;9.70;92.20;;;;;;5096351;28;20448;-78
2022/04/23 05:27:33;;;;;;;13.60;11.90;;;9.70;92.20;;;;;;5096740;28;20476;-78
2022/04/23 05:30:03;;;;;;;15.37;13.73;;;9.70;92.20;;;;;;5099322;28;20440;-78
2022/04/23 05:32:32;;;;;;;13.60;12.10;;;9.70;92.30;;;;;;5134129;27;20472;-78
2022/04/23 05:35:03;;;;;;;14.10;12.70;;;9.70;92.30;;;;;;5100622;28;20436;-78
2022/04/23 05:37:31;;;;;;;13.93;11.60;;;9.70;92.30;;;;;;5100306;28;20468;-78
2022/04/23 05:40:00;;;;;;;13.43;11.33;;;9.70;92.60;;;;;;5104023;28;20459;-78
2022/04/23 05:42:28;;;;;;;12.30;11.00;;;9.70;92.40;;;;;;5101537;28;20448;-78
2022/04/23 05:44:56;;;;;;;16.43;12.87;;;9.80;92.40;;;;;;5098552;28;20491;-78
2022/04/23 05:47:26;;;;;;;13.07;11.70;;;9.80;92.40;;;;;;5100054;28;20516;-78
2022/04/23 05:49:55;;;;;;;13.60;11.40;;;9.80;92.50;;;;;;5100556;28;21073;-78
2022/04/23 05:52:23;;;;;;;14.17;12.27;;;9.80;92.50;;;;;;5087861;28;20464;-78
2022/04/23 05:54:52;;;;;;;14.93;11.90;;;9.90;92.50;;;;;;5084065;28;20436;-79
2022/04/23 05:57:20;;;;;;;14.20;12.20;;;9.90;92.50;;;;;;5088230;28;21133;-78
2022/04/23 05:59:49;;;;;;;13.50;12.10;;;10.00;92.10;;;;;;5112395;28;20859;-78
2022/04/23 06:02:17;;;;;;;13.60;12.20;;;10.10;92.10;;;;;;5089659;28;20449;-78
2022/04/23 06:04:49;;;;;;;13.83;12.33;;;10.30;92.10;;;;;;5086219;28;20805;-79
2022/04/23 06:07:18;;;;;;;12.47;11.10;;;10.50;92.10;;;;;;5101170;28;22295;-78
2022/04/23 06:09:47;;;;;;;12.97;11.67;;;10.80;92.20;;;;;;5100873;28;20497;-79
2022/04/23 06:12:15;;;;;;;13.13;10.67;;;11.00;92.10;;;;;;5100122;28;20451;-79
2022/04/23 06:14:44;;;;;;;12.67;11.37;;;11.30;92.10;;;;;;5095761;28;20974;-78
2022/04/23 06:17:13;;;;;;;13.30;10.83;;;11.40;92.00;;;;;;5089091;28;20445;-78
2022/04/23 06:19:42;;;;;;;13.23;11.63;;;11.70;92.00;;;;;;5077079;28;20865;-78
2022/04/23 06:22:12;;;;;;;12.60;11.00;;;11.90;91.90;;;;;;5077050;28;20445;-78
2022/04/23 06:24:41;;;;;;;14.50;10.67;;;12.10;91.70;;;;;;5079434;28;20484;-78
2022/04/23 06:27:09;;;;;;;12.53;10.57;;;12.30;91.60;;;;;;5077592;28;20466;-77
2022/04/23 06:29:39;;;;;;;12.83;11.20;;;12.50;91.50;;;;;;5084427;28;20448;-78
2022/04/23 06:32:08;;;;;;;11.97;10.73;;;12.60;91.30;;;;;;5080143;28;20453;-78
2022/04/23 06:34:37;;;;;;;13.47;12.07;;;12.70;91.20;;;;;;5080729;28;20452;-78
2022/04/23 06:37:06;;;;;;;12.77;11.03;;;12.80;91.00;;;;;;5114916;28;20532;-78
2022/04/23 06:39:36;;;;;;;13.13;11.63;;;13.00;91.10;;;;;;5096094;28;20974;-78
2022/04/23 06:42:05;;;;;;;12.73;11.43;;;13.20;91.00;;;;;;5104051;28;20451;-78
2022/04/23 06:44:38;;;;;;;13.10;11.70;;;13.30;90.80;;;;;;5128740;27;20988;-78
2022/04/23 06:47:08;;;;;;;14.47;12.97;;;13.40;90.70;;;;;;5103910;28;20543;-78
2022/04/23 06:49:36;;;;;;;12.60;11.13;;;13.50;90.60;;;;;;5102935;28;20456;-78
2022/04/23 06:52:05;;;;;;;13.03;11.63;;;13.60;90.40;;;;;;5138307;27;20476;-78
2022/04/23 06:54:33;;;;;;;13.70;11.73;;;13.80;90.40;;;;;;5136714;27;20980;-78
2022/04/23 06:57:04;;;;;;;14.20;12.80;;;13.90;90.30;;;;;;5102755;28;20482;-78
2022/04/23 06:59:33;;;;;;;13.93;12.43;;;14.00;90.10;;;;;;5089547;28;20444;-78
2022/04/23 07:02:03;;;;;;;13.97;12.00;;;14.10;89.90;;;;;;5092445;28;20433;-78
2022/04/23 07:04:32;;;;;;;13.07;11.67;;;14.20;89.50;;;;;;5100396;28;20411;-78
2022/04/23 07:07:01;;;;;;;14.23;12.73;;;14.30;89.50;;;;;;5100031;28;20617;-78
2022/04/23 07:09:29;;;;;;;13.53;12.20;;;14.40;89.40;;;;;;5102210;28;20531;-78
2022/04/23 07:11:58;;;;;;;14.80;11.90;;;14.50;88.90;;;;;;5134162;27;20431;-78
2022/04/23 07:14:27;;;;;;;13.93;12.53;;;14.60;88.50;;;;;;5097743;28;20438;-78
2022/04/23 07:16:57;;;;;;;13.67;12.00;;;14.70;88.30;;;;;;5099246;28;20423;-78
2022/04/23 07:19:26;;;;;;;14.40;12.90;;;14.70;88.00;;;;;;5103666;28;20501;-78
2022/04/23 07:21:54;;;;;;;15.00;13.00;;;14.80;87.70;;;;;;5089253;28;20458;-79
2022/04/23 07:24:22;;;;;;;13.57;12.27;;;14.90;87.80;;;;;;5084383;28;20423;-78
2022/04/23 07:26:51;;;;;;;14.47;12.97;;;15.00;87.60;;;;;;5103426;28;20444;-78
2022/04/23 07:29:19;;;;;;;14.70;13.20;;;15.10;87.20;;;;;;5104562;28;20466;-78
2022/04/23 07:31:49;;;;;;;15.20;13.70;;;15.20;86.90;;;;;;5105073;28;20414;-78
2022/04/23 07:39:50;;;;;;;14.13;12.73;;;15.30;86.00;;;;;;5105824;28;20925;-78
2022/04/23 07:42:18;;;;;;;14.20;12.70;;;15.50;86.30;;;;;;5084843;28;20445;-78
2022/04/23 07:44:46;;;;;;;15.70;14.07;;;15.60;85.80;;;;;;5091582;28;20539;-78
2022/04/23 07:47:20;;;;;;;14.60;13.10;;;15.60;85.40;;;;;;5101854;28;20407;-78
2022/04/23 07:49:48;;;;;;;15.17;13.60;;;15.70;84.90;;;;;;5101493;28;20519;-78
2022/04/23 07:52:17;;;;;;;14.20;12.80;;;15.80;84.60;;;;;;5102151;28;20457;-78
2022/04/23 07:54:45;;;;;;;14.67;13.27;;;15.80;84.60;;;;;;5102380;28;20440;-78
2022/04/23 07:57:14;;;;;;;14.57;13.17;;;15.80;84.30;;;;;;5101524;28;20972;-78
2022/04/23 07:59:43;;;;;;;14.30;12.87;;;15.90;83.80;;;;;;5102926;28;20421;-78
2022/04/23 08:02:11;;;;;;;14.90;13.40;;;16.00;83.80;;;;;;5103357;28;20432;-78
2022/04/23 08:04:42;;;;;;;15.80;14.30;;;16.00;84.00;;;;;;5086617;28;20427;-78
2022/04/23 08:07:10;;;;;;;15.60;14.10;;;16.20;84.00;;;;;;5082688;28;20456;-78
2022/04/23 08:09:39;;;;;;;17.50;15.70;;;16.30;83.60;;;;;;5081187;28;20446;-78
2022/04/23 08:12:10;;;;;;;15.93;14.20;;;16.40;83.30;;;;;;5081395;28;20484;-78
2022/04/23 08:14:39;;;;;;;16.67;15.00;;;16.50;83.00;;;;;;5080419;28;20952;-77
2022/04/23 08:17:07;;;;;;;15.20;13.60;;;16.60;81.90;;;;;;5080617;28;20498;-78
2022/04/23 08:19:37;;;;;;;14.80;13.37;;;16.60;82.00;;;;;;5092094;28;20425;-76
2022/04/23 08:22:07;;;;;;;15.17;13.67;;;16.70;81.50;;;;;;5133936;27;20475;-78
2022/04/23 08:24:36;;;;;;;15.50;13.77;;;16.70;81.40;;;;;;5101784;28;20543;-78
2022/04/23 08:27:04;;;;;;;15.17;13.57;;;16.80;81.20;;;;;;5101100;28;20483;-78
2022/04/23 08:32:18;;;;;;;14.03;12.50;;;16.90;80.40;;;;;;5097466;28;21074;-77
2022/04/23 08:34:46;;;;;;;14.20;12.80;;;16.90;79.70;;;;;;5104459;28;20502;-78
2022/04/23 08:37:16;;;;;;;13.60;12.10;;;17.00;79.80;;;;;;5097940;28;20444;-77
2022/04/23 08:39:46;;;;;;;11.63;10.43;;;17.00;79.60;;;;;;5097943;28;20439;-77
2022/04/23 08:42:17;;;;;;;12.37;11.17;;;17.10;79.10;;;;;;5097533;28;20523;-77
2022/04/23 08:44:45;;;;;;;12.63;10.83;;;17.20;78.90;;;;;;5083943;28;20487;-78
2022/04/23 08:47:16;;;;;;;11.67;9.53;;;17.30;78.80;;;;;;5077760;28;20471;-78
2022/04/23 08:49:44;;;;;;;11.43;10.27;;;17.40;76.70;;;;;;5109654;28;20457;-77
2022/04/23 08:52:18;;;;;;;10.03;8.93;;;17.30;75.60;;;;;;5084080;28;20567;-77
2022/04/23 08:54:48;;;;;;;11.50;8.80;;;17.20;75.30;;;;;;5109387;28;20445;-77
2022/04/23 08:57:16;;;;;;;11.27;9.10;;;17.20;75.80;;;;;;5076660;28;20435;-79
2022/04/23 08:59:51;;;;;;;11.27;9.10;;;17.30;75.70;;;;;;5084808;28;20863;-78
2022/04/23 09:02:19;;;;;;;10.73;8.73;;;17.30;74.90;;;;;;5085492;28;20444;-77
2022/04/23 09:04:48;;;;;;;10.03;8.00;;;17.30;73.70;;;;;;5096117;28;20458;-77
2022/04/23 09:07:23;;;;;;;10.93;8.40;;;17.30;72.40;;;;;;5095908;28;20444;-77
2022/04/23 09:09:52;;;;;;;9.30;8.03;;;17.30;73.50;;;;;;5088325;28;20472;-78
2022/04/23 09:12:24;;;;;;;9.60;8.23;;;17.30;73.90;;;;;;5074894;28;20440;-77
2022/04/23 09:14:53;;;;;;;10.30;9.03;;;17.40;72.80;;;;;;5075663;28;20438;-77
2022/04/23 09:25:52;;;;;;;9.20;7.80;;;17.50;71.00;;;;;;5074661;28;20433;-77
2022/04/23 09:28:22;;;;;;;8.40;7.03;;;17.40;70.40;;;;;;5075254;28;20885;-78
2022/04/23 09:30:52;;;;;;;9.10;7.47;;;17.40;69.70;;;;;;5109408;28;20485;-77
2022/04/23 09:33:27;;;;;;;9.10;7.50;;;17.40;70.30;;;;;;5076398;28;20612;-78
2022/04/23 09:35:57;;;;;;;11.60;7.80;;;17.40;70.00;;;;;;5095257;28;20538;-77
2022/04/23 09:38:27;;;;;;;10.13;7.40;;;17.40;70.10;;;;;;5096852;28;20559;-77
2022/04/23 09:40:57;;;;;;;9.20;6.70;;;17.50;70.60;;;;;;5085533;28;20447;-78
2022/04/23 09:43:28;;;;;;;12.20;8.47;;;17.50;70.40;;;;;;5076781;28;20482;-78
2022/04/23 09:46:04;;;;;;;9.47;7.90;;;17.60;70.30;;;;;;5095110;28;20447;-77
2022/04/23 09:48:39;;;;;;;10.27;7.30;;;17.70;70.30;;;;;;5095360;28;20478;-78
2022/04/23 09:51:20;;;;;;;8.93;7.30;;;17.80;70.10;;;;;;5094984;28;20444;-77
2022/04/23 09:53:53;;;;;;;9.70;7.60;;;17.80;69.00;;;;;;5094701;28;20492;-78
2022/04/23 09:56:22;;;;;;;9.53;7.23;;;17.70;67.50;;;;;;5095026;28;20528;-78
2022/04/23 09:58:50;;;;;;;8.10;6.87;;;17.70;68.50;;;;;;5095121;28;20479;-78
2022/04/23 10:01:20;;;;;;;9.10;7.67;;;17.70;68.70;;;;;;5086295;28;20456;-77
2022/04/23 10:03:51;;;;;;;11.93;7.40;;;17.80;68.90;;;;;;5081276;28;20452;-78
2022/04/23 10:06:20;;;;;;;9.10;6.77;;;17.80;68.90;;;;;;5115780;28;20459;-77
2022/04/23 10:08:52;;;;;;;8.47;7.07;;;17.90;68.30;;;;;;5096342;28;20467;-77
2022/04/23 10:11:24;;;;;;;8.90;7.30;;;18.00;68.30;;;;;;5080225;28;20495;-78
2022/04/23 10:13:56;;;;;;;10.83;7.27;;;17.90;67.70;;;;;;5081592;28;20469;-78
2022/04/23 10:16:25;;;;;;;10.57;7.47;;;18.00;68.20;;;;;;5081397;28;20461;-78
2022/04/23 10:18:56;;;;;;;9.57;7.70;;;18.00;68.40;;;;;;5095309;28;20482;-78
2022/04/23 10:21:30;;;;;;;9.50;7.30;;;18.10;68.10;;;;;;5100072;28;20437;-77
2022/04/23 10:24:08;;;;;;;10.60;7.60;;;18.20;68.00;;;;;;5101140;28;20414;-77
2022/04/23 10:26:43;;;;;;;8.20;6.67;;;18.30;67.60;;;;;;5100787;28;20420;-78
2022/04/23 10:29:14;;;;;;;10.10;7.17;;;18.30;67.80;;;;;;5099423;28;20476;-78
2022/04/23 10:31:43;;;;;;;11.10;6.60;;;18.30;67.50;;;;;;5099077;28;21012;-78
2022/04/23 10:34:31;;;;;;;8.70;7.00;;;18.40;67.60;;;;;;5098727;28;20452;-77
2022/04/23 10:37:17;;;;;;;10.40;7.67;;;18.40;66.20;;;;;;5100368;28;20447;-78
2022/04/23 10:40:06;;;;;;;9.87;6.73;;;18.40;66.30;;;;;;5106091;28;20465;-78
2022/04/23 10:42:34;;;;;;;12.13;6.70;;;18.40;65.50;;;;;;5100415;28;20453;-78
2022/04/23 10:45:05;;;;;;;7.97;6.27;;;18.30;65.10;;;;;;5097041;28;20444;-78
2022/04/23 10:47:35;;;;;;;8.07;5.80;;;18.20;65.20;;;;;;5098439;28;20464;-78
2022/04/23 10:50:43;;;;;;;7.87;3.93;;;18.20;65.20;;;;;;5100370;28;20559;-79
2022/04/23 10:53:11;;;;;;;8.20;4.63;;;18.10;62.10;;;;;;5100170;28;20448;-77
2022/04/23 10:56:07;;;;;;;7.27;5.37;;;18.10;63.70;;;;;;5098496;28;20470;-78
2022/04/23 10:58:37;;;;;;;8.27;5.37;;;18.00;63.10;;;;;;5096855;28;21016;-78
2022/04/23 11:01:21;;;;;;;9.23;5.73;;;18.00;63.40;;;;;;5101123;28;20508;-78
2022/04/23 11:04:15;;;;;;;8.10;4.90;;;18.00;63.00;;;;;;5094359;28;20452;-77
2022/04/23 11:12:36;;;;;;;7.67;5.40;;;18.10;63.30;;;;;;5086679;28;20433;-78
2022/04/23 11:15:15;;;;;;;7.30;5.20;;;18.10;62.30;;;;;;5097974;28;20951;-78
2022/04/23 11:17:53;;;;;;;7.57;4.90;;;18.10;62.50;;;;;;5091497;28;20475;-78
2022/04/23 11:20:29;;;;;;;7.30;4.33;;;18.10;62.60;;;;;;5118996;27;20901;-78
2022/04/23 11:22:59;;;;;;;7.40;4.73;;;18.10;61.70;;;;;;5081435;28;20451;-78
2022/04/23 11:25:28;;;;;;;7.13;4.40;;;18.00;62.00;;;;;;5077904;28;20460;-77
2022/04/23 11:28:01;;;;;;;6.77;4.90;;;18.00;61.80;;;;;;5111846;28;21086;-78
2022/04/23 11:30:30;;;;;;;6.83;4.63;;;18.00;61.40;;;;;;5098431;28;20459;-78
2022/04/23 11:33:13;;;;;;;8.20;4.93;;;18.00;61.20;;;;;;5096858;28;20426;-77
2022/04/23 11:35:42;;;;;;;7.17;4.87;;;17.90;60.20;;;;;;5092023;28;20449;-78
2022/04/23 11:38:25;;;;;;;7.43;5.03;;;17.80;60.20;;;;;;5078454;28;20883;-78
2022/04/23 11:40:53;;;;;;;8.37;5.20;;;17.80;60.40;;;;;;5080710;28;20453;-77
2022/04/23 11:43:34;;;;;;;7.40;5.23;;;17.80;60.80;;;;;;5075926;28;20463;-78
2022/04/23 11:46:03;;;;;;;8.13;4.77;;;17.80;60.40;;;;;;5077291;28;20456;-77
2022/04/23 11:48:47;;;;;;;7.77;4.60;;;17.80;60.90;;;;;;5075946;28;20469;-78
2022/04/23 11:51:16;;;;;;;6.87;4.60;;;17.80;60.70;;;;;;5077116;28;20546;-78
2022/04/23 11:53:52;;;;;;;7.10;4.57;;;17.90;60.70;;;;;;5075676;28;20502;-77
2022/04/23 11:56:24;;;;;;;8.10;4.83;;;17.90;60.70;;;;;;5075375;28;20440;-77
2022/04/23 11:58:56;;;;;;;7.07;4.77;;;17.90;60.20;;;;;;5076424;28;20456;-77
2022/04/23 12:01:25;;;;;;;6.27;4.53;;;17.90;59.90;;;;;;5075406;28;20434;-78
2022/04/23 12:03:55;;;;;;;8.20;4.63;;;17.90;59.80;;;;;;5075160;28;20460;-78
2022/04/23 12:06:25;;;;;;;7.90;4.87;;;17.90;60.20;;;;;;5078838;28;20467;-78
2022/04/23 12:09:04;;;;;;;6.77;4.90;;;17.90;60.00;;;;;;5083521;28;20888;-77
2022/04/23 12:11:32;;;;;;;7.17;4.60;;;17.90;60.20;;;;;;5076509;28;20461;-77
2022/04/23 12:14:03;;;;;;;10.67;4.67;;;18.00;60.70;;;;;;5091967;28;20441;-77
2022/04/23 12:16:33;;;;;;;8.33;4.90;;;18.00;60.50;;;;;;5074766;28;20492;-77
2022/04/23 12:19:03;;;;;;;7.07;3.87;;;18.10;60.60;;;;;;5075936;28;20457;-77
2022/04/23 12:21:32;;;;;;;6.20;4.07;;;18.10;60.50;;;;;;5091609;28;20811;-77
2022/04/23 12:24:01;;;;;;;6.40;4.37;;;18.10;60.10;;;;;;5091576;28;20503;-77
2022/04/23 12:26:35;;;;;;;8.20;5.50;;;18.20;59.90;;;;;;5075913;28;20940;-77
2022/04/23 12:40:51;;;;;;;7.53;4.87;;;18.20;59.70;;;;;;5074572;28;20437;-77
2022/04/23 12:43:24;;;;;;;6.90;3.97;;;18.10;59.20;;;;;;5075807;28;20421;-78
2022/04/23 12:46:08;;;;;;;6.63;4.63;;;18.10;59.60;;;;;;5075986;28;20775;-77
2022/04/23 12:48:57;;;;;;;8.40;4.93;;;18.10;58.90;;;;;;5108121;28;20553;-77
2022/04/23 12:51:25;;;;;;;6.47;4.80;;;18.10;58.60;;;;;;5078803;28;20954;-77
2022/04/23 12:53:53;;;;;;;9.33;4.60;;;18.10;59.70;;;;;;5095322;28;20444;-77
2022/04/23 12:56:33;;;;;;;6.20;4.03;;;18.10;59.10;;;;;;5128148;27;21012;-77
2022/04/23 12:59:03;;;;;;;6.70;4.30;;;18.10;59.10;;;;;;5093853;28;20455;-77
2022/04/23 13:01:33;;;;;;;7.80;3.90;;;18.10;59.20;;;;;;5094581;28;20432;-75
2022/04/23 13:04:03;;;;;;;6.60;4.77;;;18.10;58.80;;;;;;5094646;28;20876;-76
2022/04/23 13:09:16;;;;;;;6.77;4.50;;;18.20;58.80;;;;;;5113221;28;20467;-76
2022/04/23 13:11:45;;;;;;;6.83;4.30;;;18.20;58.60;;;;;;5100704;28;20491;-76
2022/04/23 13:14:14;;;;;;;6.67;4.40;;;18.20;58.40;;;;;;5094873;28;20479;-77
2022/04/23 13:16:44;;;;;;;7.87;4.00;;;18.20;58.40;;;;;;5092937;28;20460;-76
2022/04/23 13:19:19;;;;;;;6.63;4.10;;;18.20;58.40;;;;;;5094249;28;20460;-76
2022/04/23 13:21:47;;;;;;;6.90;4.73;;;18.20;58.50;;;;;;5094632;28;20424;-77
2022/04/23 13:24:16;;;;;;;6.60;4.17;;;18.30;58.60;;;;;;5094676;28;20824;-76
2022/04/23 13:26:44;;;;;;;6.63;4.30;;;18.30;58.20;;;;;;5095853;28;20439;-76